Time;durP1;ratioP1;P1;durP2;ratioP2;P2;SDS_P1;SDS_P2;PMS_P1;PMS_P2;Temp;Humidity;BMP_temperature;BMP_pressure;BME280_temperature;BME280_humidity;BME280_pressure;Samples;Min_cycle;Max_cycle;Signal;HPM_P1;HPM_P2
2023/03/24 00:00:12;;;;;;;;;;;;;;;;;;1030802;28;19993;-60
2023/03/24 00:00:43;;;;;;;;;;;;;;;;;;1031198;28;20258;-60
2023/03/24 00:01:15;;;;;;;;;;;;;;;;;;1030620;28;20540;-59
2023/03/24 00:01:45;;;;;;;;;;;;;;;;;;1031137;28;19910;-59
2023/03/24 00:02:16;;;;;;;;;;;;;;;;;;1030740;28;20024;-59
2023/03/24 00:02:47;;;;;;;;;;;;;;;;;;1031108;28;19914;-60
2023/03/24 00:03:18;;;;;;;;;;;;;;;;;;1030593;28;19916;-60
2023/03/24 00:03:50;;;;;;;;;;;;;;;;;;1031102;28;20325;-60
2023/03/24 00:04:23;;;;;;;;;;;;;;;;;;1030771;28;20011;-59
2023/03/24 00:04:57;;;;;;;;;;;;;;;;;;1031185;28;19913;-60
2023/03/24 00:05:29;;;;;;;;;;;;;;;;;;1030552;28;19916;-59
2023/03/24 00:06:03;;;;;;;;;;;;;;;;;;1031295;28;19918;-60
2023/03/24 00:06:35;;;;;;;;;;;;;;;;;;1030759;28;20001;-60
2023/03/24 00:07:07;;;;;;;;;;;;;;;;;;1030908;28;19909;-60
2023/03/24 00:07:38;;;;;;;;;;;;;;;;;;1030907;28;19992;-60
2023/03/24 00:08:09;;;;;;;;;;;;;;;;;;1030798;28;19956;-59
2023/03/24 00:08:40;;;;;;;;;;;;;;;;;;1030913;28;19956;-60
2023/03/24 00:09:11;;;;;;;;;;;;;;;;;;1031005;28;19960;-60
2023/03/24 00:09:42;;;;;;;;;;;;;;;;;;1030765;28;19913;-60
2023/03/24 00:10:13;;;;;;;;;;;;;;;;;;1030667;28;19924;-59
2023/03/24 00:10:46;;;;;;;;;;;;;;;;;;1030924;28;19916;-60
2023/03/24 00:11:18;;;;;;;;;;;;;;;;;;1030818;28;19916;-60
2023/03/24 00:11:49;;;;;;;;;;;;;;;;;;1030773;28;19910;-60
2023/03/24 00:12:20;;;;;;;;;;;;;;;;;;1030481;28;19914;-60
2023/03/24 00:12:50;;;;;;;;;;;;;;;;;;1030888;28;19993;-60
2023/03/24 00:13:21;;;;;;;;;;;;;;;;;;1030770;28;20467;-59
2023/03/24 00:13:52;;;;;;;;;;;;;;;;;;1030932;28;19959;-60
2023/03/24 00:14:23;;;;;;;;;;;;;;;;;;1030869;28;19916;-60
2023/03/24 00:14:54;;;;;;;;;;;;;;;;;;1030844;28;19917;-59
2023/03/24 00:15:25;;;;;;;;;;;;;;;;;;1030787;28;19910;-60
2023/03/24 00:15:56;;;;;;;;;;;;;;;;;;1030890;28;20005;-59
2023/03/24 00:16:27;;;;;;;;;;;;;;;;;;1030880;28;20280;-60
2023/03/24 00:16:58;;;;;;;;;;;;;;;;;;1030801;28;19910;-60
2023/03/24 00:17:29;;;;;;;;;;;;;;;;;;1030828;28;20004;-60
2023/03/24 00:18:00;;;;;;;;;;;;;;;;;;1030934;28;19916;-60
2023/03/24 00:18:31;;;;;;;;;;;;;;;;;;1030909;28;20387;-60
2023/03/24 00:19:02;;;;;;;;;;;;;;;;;;1030741;28;19910;-60
2023/03/24 00:19:33;;;;;;;;;;;;;;;;;;1031061;28;19960;-60
2023/03/24 00:20:06;;;;;;;;;;;;;;;;;;1030836;28;20007;-60
2023/03/24 00:20:37;;;;;;;;;;;;;;;;;;1030993;28;19936;-60
2023/03/24 00:21:10;;;;;;;;;;;;;;;;;;1030729;28;19913;-59
2023/03/24 00:21:41;;;;;;;;;;;;;;;;;;1031234;28;19970;-60
2023/03/24 00:22:13;;;;;;;;;;;;;;;;;;1030376;28;20008;-60
2023/03/24 00:22:49;;;;;;;;;;;;;;;;;;1031225;28;19949;-59
2023/03/24 00:23:21;;;;;;;;;;;;;;;;;;1030807;28;20364;-60
2023/03/24 00:23:53;;;;;;;;;;;;;;;;;;1030895;28;19960;-60
2023/03/24 00:24:24;;;;;;;;;;;;;;;;;;1030654;28;19914;-60
2023/03/24 00:24:55;;;;;;;;;;;;;;;;;;1031252;28;19913;-60
2023/03/24 00:25:26;;;;;;;;;;;;;;;;;;1030596;28;19917;-60
2023/03/24 00:25:57;;;;;;;;;;;;;;;;;;1030903;28;19953;-60
2023/03/24 00:26:28;;;;;;;;;;;;;;;;;;1026610;28;20068;-60
2023/03/24 00:26:59;;;;;;;;;;;;;;;;;;1027359;28;19916;-60
2023/03/24 00:27:35;;;;;;;;;;;;;;;;;;1030764;28;19949;-60
2023/03/24 00:28:06;;;;;;;;;;;;;;;;;;1032116;28;19949;-60
2023/03/24 00:28:37;;;;;;;;;;;;;;;;;;1032251;28;19959;-60
2023/03/24 00:29:09;;;;;;;;;;;;;;;;;;1032149;28;19945;-60
2023/03/24 00:29:40;;;;;;;;;;;;;;;;;;1032168;28;19910;-60
2023/03/24 00:30:11;;;;;;;;;;;;;;;;;;1032258;28;20067;-60
2023/03/24 00:30:42;;;;;;;;;;;;;;;;;;1032078;28;19909;-60
2023/03/24 00:31:16;;;;;;;;;;;;;;;;;;1032269;28;19910;-60
2023/03/24 00:31:47;;;;;;;;;;;;;;;;;;1032228;28;20000;-60
2023/03/24 00:32:18;;;;;;;;;;;;;;;;;;1032216;28;19917;-60
2023/03/24 00:32:49;;;;;;;;;;;;;;;;;;1032067;28;19913;-60
2023/03/24 00:33:20;;;;;;;;;;;;;;;;;;1032446;28;20363;-60
2023/03/24 00:33:51;;;;;;;;;;;;;;;;;;1032130;28;20328;-60
2023/03/24 00:34:22;;;;;;;;;;;;;;;;;;1032133;28;19910;-60
2023/03/24 00:34:53;;;;;;;;;;;;;;;;;;1032220;28;19910;-60
2023/03/24 00:35:23;;;;;;;;;;;;;;;;;;1031632;28;19909;-60
2023/03/24 00:35:56;;;;;;;;;;;;;;;;;;1031200;28;19913;-60
2023/03/24 00:36:28;;;;;;;;;;;;;;;;;;1030773;28;19925;-60
2023/03/24 00:36:58;;;;;;;;;;;;;;;;;;1032272;28;20001;-59
2023/03/24 00:37:29;;;;;;;;;;;;;;;;;;1032076;28;19920;-60
2023/03/24 00:38:00;;;;;;;;;;;;;;;;;;1032290;28;19909;-60
2023/03/24 00:38:33;;;;;;;;;;;;;;;;;;1032213;28;19945;-59
2023/03/24 00:39:05;;;;;;;;;;;;;;;;;;1032236;28;19909;-60
2023/03/24 00:39:35;;;;;;;;;;;;;;;;;;1032429;28;19983;-60
2023/03/24 00:40:07;;;;;;;;;;;;;;;;;;1032135;28;20016;-60
2023/03/24 00:40:38;;;;;;;;;;;;;;;;;;1032587;28;19988;-59
2023/03/24 00:41:12;;;;;;;;;;;;;;;;;;1031714;28;20316;-60
2023/03/24 00:41:44;;;;;;;;;;;;;;;;;;1032360;28;20411;-60
2023/03/24 00:42:15;;;;;;;;;;;;;;;;;;1029687;28;19909;-60
2023/03/24 00:42:46;;;;;;;;;;;;;;;;;;1030757;28;19910;-60
2023/03/24 00:43:17;;;;;;;;;;;;;;;;;;1032086;28;19910;-60
2023/03/24 00:43:48;;;;;;;;;;;;;;;;;;1032440;28;20172;-59
2023/03/24 00:44:19;;;;;;;;;;;;;;;;;;1031901;28;20502;-59
2023/03/24 00:44:52;;;;;;;;;;;;;;;;;;1032449;28;20558;-60
2023/03/24 00:45:23;;;;;;;;;;;;;;;;;;1031717;28;19906;-60
2023/03/24 00:45:55;;;;;;;;;;;;;;;;;;1032304;28;19928;-61
2023/03/24 00:46:29;;;;;;;;;;;;;;;;;;1031800;28;19910;-60
2023/03/24 00:47:00;;;;;;;;;;;;;;;;;;1032535;28;19910;-60
2023/03/24 00:47:35;;;;;;;;;;;;;;;;;;1031932;28;20689;-59
2023/03/24 00:48:06;;;;;;;;;;;;;;;;;;1032324;28;19910;-60
2023/03/24 00:48:37;;;;;;;;;;;;;;;;;;1032140;28;20150;-60
2023/03/24 00:49:10;;;;;;;;;;;;;;;;;;1032238;28;19913;-60
2023/03/24 00:49:41;;;;;;;;;;;;;;;;;;1032085;28;19916;-60
2023/03/24 00:50:12;;;;;;;;;;;;;;;;;;1032206;28;20005;-59
2023/03/24 00:50:43;;;;;;;;;;;;;;;;;;1032066;28;19909;-59
2023/03/24 00:51:14;;;;;;;;;;;;;;;;;;1032225;28;19917;-60
2023/03/24 00:51:45;;;;;;;;;;;;;;;;;;1032050;28;19917;-60
2023/03/24 00:52:19;;;;;;;;;;;;;;;;;;1032216;28;20428;-60
2023/03/24 00:52:50;;;;;;;;;;;;;;;;;;1031791;28;19924;-60
2023/03/24 00:53:30;;;;;;;;;;;;;;;;;;1032053;28;20000;-60
2023/03/24 00:54:01;;;;;;;;;;;;;;;;;;1031948;28;20383;-60
2023/03/24 00:54:34;;;;;;;;;;;;;;;;;;1032156;28;20490;-60
2023/03/24 00:55:04;;;;;;;;;;;;;;;;;;1032143;28;19913;-59
2023/03/24 00:55:36;;;;;;;;;;;;;;;;;;1031710;28;19917;-60
2023/03/24 00:56:08;;;;;;;;;;;;;;;;;;1031547;28;20052;-59
2023/03/24 00:56:39;;;;;;;;;;;;;;;;;;1032011;28;20558;-60
2023/03/24 00:57:11;;;;;;;;;;;;;;;;;;1031654;28;19916;-59
2023/03/24 00:57:48;;;;;;;;;;;;;;;;;;1032259;28;19910;-59
2023/03/24 00:58:22;;;;;;;;;;;;;;;;;;1032068;28;19910;-60
2023/03/24 00:58:53;;;;;;;;;;;;;;;;;;1032393;28;19916;-59
2023/03/24 00:59:24;;;;;;;;;;;;;;;;;;1032014;28;19984;-60
2023/03/24 00:59:55;;;;;;;;;;;;;;;;;;1032263;28;20436;-59
2023/03/24 01:00:25;;;;;;;;;;;;;;;;;;1031936;28;19913;-59
2023/03/24 01:00:56;;;;;;;;;;;;;;;;;;1032474;28;19910;-60
2023/03/24 01:01:28;;;;;;;;;;;;;;;;;;1031624;28;20280;-60
2023/03/24 01:01:59;;;;;;;;;;;;;;;;;;1032477;28;19976;-60
2023/03/24 01:02:30;;;;;;;;;;;;;;;;;;1031841;28;20020;-60
2023/03/24 01:03:02;;;;;;;;;;;;;;;;;;1031914;28;20417;-60
2023/03/24 01:03:33;;;;;;;;;;;;;;;;;;1031787;28;19910;-59
2023/03/24 01:04:04;;;;;;;;;;;;;;;;;;1031935;28;19909;-63
2023/03/24 01:04:35;;;;;;;;;;;;;;;;;;1031704;28;19941;-60
2023/03/24 01:05:07;;;;;;;;;;;;;;;;;;1031920;28;19906;-60
2023/03/24 01:05:40;;;;;;;;;;;;;;;;;;1031893;28;19913;-60
2023/03/24 01:06:10;;;;;;;;;;;;;;;;;;1031888;28;19913;-60
2023/03/24 01:06:43;;;;;;;;;;;;;;;;;;1031830;28;19905;-60
2023/03/24 01:07:17;;;;;;;;;;;;;;;;;;1031863;28;19912;-60
2023/03/24 01:07:50;;;;;;;;;;;;;;;;;;1031999;28;19905;-59
2023/03/24 01:08:24;;;;;;;;;;;;;;;;;;1031196;28;19925;-60
2023/03/24 01:08:55;;;;;;;;;;;;;;;;;;1032168;28;20033;-60
2023/03/24 01:09:26;;;;;;;;;;;;;;;;;;1031790;28;19914;-60
2023/03/24 01:09:57;;;;;;;;;;;;;;;;;;1032023;28;19910;-60
2023/03/24 01:10:28;;;;;;;;;;;;;;;;;;1031509;28;20541;-60
2023/03/24 01:11:00;;;;;;;;;;;;;;;;;;1032072;28;19956;-60
2023/03/24 01:11:30;;;;;;;;;;;;;;;;;;1031777;28;19909;-60
2023/03/24 01:12:02;;;;;;;;;;;;;;;;;;1031971;28;20024;-60
2023/03/24 01:12:35;;;;;;;;;;;;;;;;;;1031786;28;20349;-60
2023/03/24 01:13:06;;;;;;;;;;;;;;;;;;1031828;28;19987;-59
2023/03/24 01:13:37;;;;;;;;;;;;;;;;;;1031926;28;20324;-60
2023/03/24 01:14:08;;;;;;;;;;;;;;;;;;1031934;28;20009;-60
2023/03/24 01:14:39;;;;;;;;;;;;;;;;;;1032207;28;19910;-60
2023/03/24 01:15:10;;;;;;;;;;;;;;;;;;1031740;28;20483;-59
2023/03/24 01:15:41;;;;;;;;;;;;;;;;;;1032118;28;19910;-60
2023/03/24 01:16:13;;;;;;;;;;;;;;;;;;1031755;28;19966;-59
2023/03/24 01:16:45;;;;;;;;;;;;;;;;;;1032108;28;19909;-60
2023/03/24 01:17:18;;;;;;;;;;;;;;;;;;1031783;28;19920;-60
2023/03/24 01:17:49;;;;;;;;;;;;;;;;;;1032058;28;19916;-60
2023/03/24 01:18:19;;;;;;;;;;;;;;;;;;1031862;28;19959;-59
2023/03/24 01:18:51;;;;;;;;;;;;;;;;;;1032005;28;20628;-59
2023/03/24 01:19:24;;;;;;;;;;;;;;;;;;1031808;28;20404;-60
2023/03/24 01:19:55;;;;;;;;;;;;;;;;;;1032386;28;20324;-60
2023/03/24 01:20:25;;;;;;;;;;;;;;;;;;1031754;28;20357;-60
2023/03/24 01:20:57;;;;;;;;;;;;;;;;;;1032316;28;19917;-60
2023/03/24 01:21:28;;;;;;;;;;;;;;;;;;1031976;28;20321;-60
2023/03/24 01:21:59;;;;;;;;;;;;;;;;;;1032061;28;20277;-60
2023/03/24 01:22:30;;;;;;;;;;;;;;;;;;1031366;28;19916;-59
2023/03/24 01:23:01;;;;;;;;;;;;;;;;;;1032104;28;19917;-59
2023/03/24 01:23:33;;;;;;;;;;;;;;;;;;1031664;28;19910;-60
2023/03/24 01:24:04;;;;;;;;;;;;;;;;;;1031774;28;19909;-60
2023/03/24 01:24:35;;;;;;;;;;;;;;;;;;1031797;28;19906;-60
2023/03/24 01:25:08;;;;;;;;;;;;;;;;;;1032065;28;19917;-60
2023/03/24 01:25:41;;;;;;;;;;;;;;;;;;1031778;28;19905;-60
2023/03/24 01:26:12;;;;;;;;;;;;;;;;;;1031886;28;19905;-60
2023/03/24 01:26:43;;;;;;;;;;;;;;;;;;1031698;28;20000;-60
2023/03/24 01:27:13;;;;;;;;;;;;;;;;;;1031111;28;19906;-60
2023/03/24 01:27:44;;;;;;;;;;;;;;;;;;1030994;28;20640;-60
2023/03/24 01:28:16;;;;;;;;;;;;;;;;;;1031635;28;19932;-60
2023/03/24 01:28:46;;;;;;;;;;;;;;;;;;1031340;28;19912;-60
2023/03/24 01:29:17;;;;;;;;;;;;;;;;;;1031520;28;19913;-60
2023/03/24 01:29:48;;;;;;;;;;;;;;;;;;1031740;28;19913;-60
2023/03/24 01:30:19;;;;;;;;;;;;;;;;;;1032028;28;19910;-60
2023/03/24 01:30:51;;;;;;;;;;;;;;;;;;1031313;28;19905;-60
2023/03/24 01:31:22;;;;;;;;;;;;;;;;;;1031779;28;19906;-60
2023/03/24 01:31:52;;;;;;;;;;;;;;;;;;1031561;28;19948;-60
2023/03/24 01:32:23;;;;;;;;;;;;;;;;;;1030084;28;19949;-60
2023/03/24 01:32:54;;;;;;;;;;;;;;;;;;1031641;28;19932;-60
2023/03/24 01:33:25;;;;;;;;;;;;;;;;;;1031827;28;19905;-60
2023/03/24 01:33:56;;;;;;;;;;;;;;;;;;1031616;28;19913;-60
2023/03/24 01:34:27;;;;;;;;;;;;;;;;;;1031624;28;19905;-59
2023/03/24 01:34:58;;;;;;;;;;;;;;;;;;1031701;28;20001;-60
2023/03/24 01:35:29;;;;;;;;;;;;;;;;;;1031364;28;19952;-60
2023/03/24 01:36:00;;;;;;;;;;;;;;;;;;1031500;28;19910;-60
2023/03/24 01:36:31;;;;;;;;;;;;;;;;;;1031874;28;20462;-60
2023/03/24 01:37:02;;;;;;;;;;;;;;;;;;1031718;28;19913;-60
2023/03/24 01:37:33;;;;;;;;;;;;;;;;;;1032176;28;19997;-60
2023/03/24 01:38:04;;;;;;;;;;;;;;;;;;1031806;28;20365;-60
2023/03/24 01:38:35;;;;;;;;;;;;;;;;;;1032409;28;19906;-60
2023/03/24 01:39:06;;;;;;;;;;;;;;;;;;1031245;28;20411;-60
2023/03/24 01:39:37;;;;;;;;;;;;;;;;;;1030982;28;19906;-60
2023/03/24 01:40:08;;;;;;;;;;;;;;;;;;1030998;28;19910;-60
2023/03/24 01:40:39;;;;;;;;;;;;;;;;;;1031792;28;19945;-60
2023/03/24 01:41:10;;;;;;;;;;;;;;;;;;1031091;28;19902;-60
2023/03/24 01:41:41;;;;;;;;;;;;;;;;;;1031748;28;19906;-60
2023/03/24 01:42:12;;;;;;;;;;;;;;;;;;1030851;28;20483;-60
2023/03/24 01:42:43;;;;;;;;;;;;;;;;;;1031266;28;20072;-60
2023/03/24 01:43:14;;;;;;;;;;;;;;;;;;1030812;28;20533;-59
2023/03/24 01:43:45;;;;;;;;;;;;;;;;;;1031093;28;19906;-60
2023/03/24 01:44:16;;;;;;;;;;;;;;;;;;1030792;28;20042;-59
2023/03/24 01:44:47;;;;;;;;;;;;;;;;;;1031369;28;20404;-60
2023/03/24 01:45:18;;;;;;;;;;;;;;;;;;1031291;28;19996;-60
2023/03/24 01:45:48;;;;;;;;;;;;;;;;;;1031413;28;20403;-59
2023/03/24 01:46:20;;;;;;;;;;;;;;;;;;1031154;28;19960;-60
2023/03/24 01:46:50;;;;;;;;;;;;;;;;;;1031706;28;20359;-60
2023/03/24 01:47:21;;;;;;;;;;;;;;;;;;1031427;28;20730;-60
2023/03/24 01:47:52;;;;;;;;;;;;;;;;;;1031516;28;19909;-60
2023/03/24 01:48:23;;;;;;;;;;;;;;;;;;1031263;28;19909;-60
2023/03/24 01:48:54;;;;;;;;;;;;;;;;;;1031581;28;20392;-60
2023/03/24 01:49:25;;;;;;;;;;;;;;;;;;1031101;28;19959;-60
2023/03/24 01:49:56;;;;;;;;;;;;;;;;;;1031572;28;20085;-59
2023/03/24 01:50:28;;;;;;;;;;;;;;;;;;1031369;28;19910;-60
2023/03/24 01:50:59;;;;;;;;;;;;;;;;;;1031373;28;20384;-60
2023/03/24 01:51:33;;;;;;;;;;;;;;;;;;1031358;28;19910;-59
2023/03/24 01:52:04;;;;;;;;;;;;;;;;;;1031546;28;20288;-59
2023/03/24 01:52:35;;;;;;;;;;;;;;;;;;1031392;28;20358;-60
2023/03/24 01:53:06;;;;;;;;;;;;;;;;;;1031367;28;19909;-60
2023/03/24 01:53:37;;;;;;;;;;;;;;;;;;1031333;28;20707;-60
2023/03/24 01:54:07;;;;;;;;;;;;;;;;;;1031426;28;19910;-60
2023/03/24 01:54:38;;;;;;;;;;;;;;;;;;1031408;28;20007;-60
2023/03/24 01:55:09;;;;;;;;;;;;;;;;;;1031508;28;20357;-60
2023/03/24 01:55:40;;;;;;;;;;;;;;;;;;1031502;28;19916;-60
2023/03/24 01:56:11;;;;;;;;;;;;;;;;;;1031239;28;19910;-60
2023/03/24 01:56:42;;;;;;;;;;;;;;;;;;1031576;28;20089;-60
2023/03/24 01:57:13;;;;;;;;;;;;;;;;;;1031386;28;20381;-60
2023/03/24 01:57:44;;;;;;;;;;;;;;;;;;1031519;28;19909;-60
2023/03/24 01:58:16;;;;;;;;;;;;;;;;;;1031207;28;20368;-60
2023/03/24 01:58:46;;;;;;;;;;;;;;;;;;1031369;28;20552;-60
2023/03/24 01:59:17;;;;;;;;;;;;;;;;;;1031343;28;20591;-60
2023/03/24 01:59:48;;;;;;;;;;;;;;;;;;1031217;28;20000;-60
2023/03/24 02:00:20;;;;;;;;;;;;;;;;;;1030529;28;19914;-59
2023/03/24 02:00:51;;;;;;;;;;;;;;;;;;1030929;28;20424;-60
2023/03/24 02:01:25;;;;;;;;;;;;;;;;;;1031146;28;20379;-59
2023/03/24 02:02:01;;;;;;;;;;;;;;;;;;1031623;28;19909;-60
2023/03/24 02:02:35;;;;;;;;;;;;;;;;;;1031573;28;19909;-60
2023/03/24 02:03:05;;;;;;;;;;;;;;;;;;1031142;28;19916;-60
2023/03/24 02:03:39;;;;;;;;;;;;;;;;;;1031674;28;19917;-59
2023/03/24 02:04:10;;;;;;;;;;;;;;;;;;1030951;28;19922;-59
2023/03/24 02:04:41;;;;;;;;;;;;;;;;;;1031070;28;20032;-60
2023/03/24 02:05:11;;;;;;;;;;;;;;;;;;1031123;28;19909;-60
2023/03/24 02:05:43;;;;;;;;;;;;;;;;;;1031580;28;20000;-60
2023/03/24 02:06:14;;;;;;;;;;;;;;;;;;1031165;28;19917;-60
2023/03/24 02:06:45;;;;;;;;;;;;;;;;;;1031480;28;20010;-60
2023/03/24 02:07:16;;;;;;;;;;;;;;;;;;1031359;28;19910;-60
2023/03/24 02:07:47;;;;;;;;;;;;;;;;;;1031076;28;19968;-60
2023/03/24 02:08:18;;;;;;;;;;;;;;;;;;1030875;28;20573;-60
2023/03/24 02:08:49;;;;;;;;;;;;;;;;;;1031031;28;19918;-60
2023/03/24 02:09:20;;;;;;;;;;;;;;;;;;1031120;28;19914;-60
2023/03/24 02:09:51;;;;;;;;;;;;;;;;;;1030973;28;19914;-60
2023/03/24 02:10:22;;;;;;;;;;;;;;;;;;1031092;28;20416;-60
2023/03/24 02:10:53;;;;;;;;;;;;;;;;;;1031125;28;20508;-60
2023/03/24 02:11:24;;;;;;;;;;;;;;;;;;1030860;28;20427;-60
2023/03/24 02:11:55;;;;;;;;;;;;;;;;;;1031223;28;19909;-60
2023/03/24 02:12:26;;;;;;;;;;;;;;;;;;1031410;28;19910;-60
2023/03/24 02:12:57;;;;;;;;;;;;;;;;;;1031183;28;19916;-60
2023/03/24 02:13:28;;;;;;;;;;;;;;;;;;1031418;28;19910;-60
2023/03/24 02:13:59;;;;;;;;;;;;;;;;;;1030794;28;19928;-60
2023/03/24 02:14:30;;;;;;;;;;;;;;;;;;1031557;28;20341;-60
2023/03/24 02:15:01;;;;;;;;;;;;;;;;;;1031173;28;20383;-60
2023/03/24 02:15:32;;;;;;;;;;;;;;;;;;1031461;28;19910;-60
2023/03/24 02:16:03;;;;;;;;;;;;;;;;;;1031088;28;19937;-60
2023/03/24 02:16:35;;;;;;;;;;;;;;;;;;1031525;28;19960;-60
2023/03/24 02:17:06;;;;;;;;;;;;;;;;;;1031122;28;19916;-60
2023/03/24 02:17:37;;;;;;;;;;;;;;;;;;1031415;28;19910;-60
2023/03/24 02:18:08;;;;;;;;;;;;;;;;;;1031105;28;19906;-60
2023/03/24 02:18:43;;;;;;;;;;;;;;;;;;1031646;28;20407;-60
2023/03/24 02:19:14;;;;;;;;;;;;;;;;;;1031181;28;20386;-60
2023/03/24 02:19:46;;;;;;;;;;;;;;;;;;1031449;28;19910;-60
2023/03/24 02:20:17;;;;;;;;;;;;;;;;;;1031229;28;19910;-59
2023/03/24 02:20:48;;;;;;;;;;;;;;;;;;1030920;28;19910;-60
2023/03/24 02:21:19;;;;;;;;;;;;;;;;;;1030926;28;20412;-60
2023/03/24 02:21:49;;;;;;;;;;;;;;;;;;1031162;28;19976;-60
2023/03/24 02:22:20;;;;;;;;;;;;;;;;;;1030654;28;20649;-60
2023/03/24 02:22:51;;;;;;;;;;;;;;;;;;1031473;28;19909;-60
2023/03/24 02:23:22;;;;;;;;;;;;;;;;;;1030657;28;20070;-60
2023/03/24 02:23:54;;;;;;;;;;;;;;;;;;1031094;28;20393;-60
2023/03/24 02:24:25;;;;;;;;;;;;;;;;;;1030684;28;19912;-59
2023/03/24 02:24:56;;;;;;;;;;;;;;;;;;1031213;28;20438;-60
2023/03/24 02:25:27;;;;;;;;;;;;;;;;;;1031123;28;20305;-60
2023/03/24 02:25:58;;;;;;;;;;;;;;;;;;1031364;28;19905;-60
2023/03/24 02:26:29;;;;;;;;;;;;;;;;;;1031195;28;19929;-60
2023/03/24 02:27:01;;;;;;;;;;;;;;;;;;1031234;28;20441;-60
2023/03/24 02:27:31;;;;;;;;;;;;;;;;;;1031082;28;19906;-60
2023/03/24 02:28:02;;;;;;;;;;;;;;;;;;1031329;28;19948;-60
2023/03/24 02:28:33;;;;;;;;;;;;;;;;;;1030953;28;19956;-60
2023/03/24 02:29:04;;;;;;;;;;;;;;;;;;1031543;28;19964;-61
2023/03/24 02:29:35;;;;;;;;;;;;;;;;;;1031237;28;20067;-59
2023/03/24 02:30:06;;;;;;;;;;;;;;;;;;1031334;28;20332;-59
2023/03/24 02:30:39;;;;;;;;;;;;;;;;;;1031376;28;19913;-60
2023/03/24 02:31:10;;;;;;;;;;;;;;;;;;1031332;28;20008;-60
2023/03/24 02:31:41;;;;;;;;;;;;;;;;;;1031231;28;19912;-60
2023/03/24 02:32:11;;;;;;;;;;;;;;;;;;1031370;28;20630;-60
2023/03/24 02:32:42;;;;;;;;;;;;;;;;;;1030990;28;19905;-60
2023/03/24 02:33:13;;;;;;;;;;;;;;;;;;1031389;28;19906;-60
2023/03/24 02:33:44;;;;;;;;;;;;;;;;;;1031037;28;20368;-60
2023/03/24 02:34:15;;;;;;;;;;;;;;;;;;1031272;28;19905;-60
2023/03/24 02:34:46;;;;;;;;;;;;;;;;;;1030934;28;19913;-60
2023/03/24 02:35:17;;;;;;;;;;;;;;;;;;1030660;28;20280;-60
2023/03/24 02:35:48;;;;;;;;;;;;;;;;;;1031103;28;19906;-60
2023/03/24 02:36:19;;;;;;;;;;;;;;;;;;1031242;28;19957;-60
2023/03/24 02:36:50;;;;;;;;;;;;;;;;;;1031137;28;20384;-60
2023/03/24 02:37:26;;;;;;;;;;;;;;;;;;1031471;28;20353;-60
2023/03/24 02:37:57;;;;;;;;;;;;;;;;;;1031009;28;19905;-60
2023/03/24 02:38:28;;;;;;;;;;;;;;;;;;1031491;28;19906;-60
2023/03/24 02:38:59;;;;;;;;;;;;;;;;;;1030973;28;19949;-60
2023/03/24 02:39:30;;;;;;;;;;;;;;;;;;1031341;28;19953;-60
2023/03/24 02:40:02;;;;;;;;;;;;;;;;;;1031171;28;20357;-60
2023/03/24 02:40:32;;;;;;;;;;;;;;;;;;1031604;28;19976;-60
2023/03/24 02:41:03;;;;;;;;;;;;;;;;;;1030973;28;19980;-60
2023/03/24 02:41:34;;;;;;;;;;;;;;;;;;1031612;28;20276;-60
2023/03/24 02:42:05;;;;;;;;;;;;;;;;;;1030676;28;19909;-60
2023/03/24 02:42:36;;;;;;;;;;;;;;;;;;1031615;28;20386;-60
2023/03/24 02:43:07;;;;;;;;;;;;;;;;;;1030912;28;19916;-60
2023/03/24 02:43:38;;;;;;;;;;;;;;;;;;1031192;28;20326;-60
2023/03/24 02:44:09;;;;;;;;;;;;;;;;;;1030391;28;19910;-60
2023/03/24 02:44:40;;;;;;;;;;;;;;;;;;1031120;28;19910;-60
2023/03/24 02:45:11;;;;;;;;;;;;;;;;;;1030616;28;19910;-60
2023/03/24 02:45:41;;;;;;;;;;;;;;;;;;1030891;28;20029;-60
2023/03/24 02:46:12;;;;;;;;;;;;;;;;;;1030901;28;19920;-60
2023/03/24 02:46:43;;;;;;;;;;;;;;;;;;1031394;28;20317;-60
2023/03/24 02:47:14;;;;;;;;;;;;;;;;;;1031146;28;20277;-60
2023/03/24 02:47:45;;;;;;;;;;;;;;;;;;1031380;28;19910;-60
2023/03/24 02:48:16;;;;;;;;;;;;;;;;;;1030996;28;20010;-60
2023/03/24 02:48:47;;;;;;;;;;;;;;;;;;1031332;28;19909;-60
2023/03/24 02:49:18;;;;;;;;;;;;;;;;;;1031196;28;19910;-60
2023/03/24 02:49:49;;;;;;;;;;;;;;;;;;1031156;28;19909;-61
2023/03/24 02:50:20;;;;;;;;;;;;;;;;;;1031225;28;20377;-60
2023/03/24 02:50:51;;;;;;;;;;;;;;;;;;1030923;28;20284;-61
2023/03/24 02:51:22;;;;;;;;;;;;;;;;;;1031168;28;19936;-60
2023/03/24 02:51:53;;;;;;;;;;;;;;;;;;1031223;28;19949;-60
2023/03/24 02:52:23;;;;;;;;;;;;;;;;;;1031321;28;19909;-60
2023/03/24 02:52:54;;;;;;;;;;;;;;;;;;1031230;28;19960;-60
2023/03/24 02:53:25;;;;;;;;;;;;;;;;;;1031264;28;19964;-60
2023/03/24 02:53:56;;;;;;;;;;;;;;;;;;1031026;28;19975;-60
2023/03/24 02:54:27;;;;;;;;;;;;;;;;;;1031358;28;19953;-60
2023/03/24 02:54:58;;;;;;;;;;;;;;;;;;1030982;28;19909;-60
2023/03/24 02:55:29;;;;;;;;;;;;;;;;;;1031298;28;19916;-60
2023/03/24 02:56:00;;;;;;;;;;;;;;;;;;1031030;28;20378;-60
2023/03/24 02:56:31;;;;;;;;;;;;;;;;;;1031254;28;19909;-60
2023/03/24 02:57:02;;;;;;;;;;;;;;;;;;1030951;28;20088;-60
2023/03/24 02:57:33;;;;;;;;;;;;;;;;;;1031421;28;19910;-61
2023/03/24 02:58:04;;;;;;;;;;;;;;;;;;1030968;28;20121;-60
2023/03/24 02:58:35;;;;;;;;;;;;;;;;;;1031418;28;19909;-60
2023/03/24 02:59:06;;;;;;;;;;;;;;;;;;1030851;28;19924;-60
2023/03/24 02:59:37;;;;;;;;;;;;;;;;;;1031539;28;19909;-60
2023/03/24 03:00:08;;;;;;;;;;;;;;;;;;1030462;28;20060;-60
2023/03/24 03:00:40;;;;;;;;;;;;;;;;;;1031541;28;20262;-60
2023/03/24 03:01:12;;;;;;;;;;;;;;;;;;1030522;28;19952;-60
2023/03/24 03:01:43;;;;;;;;;;;;;;;;;;1030980;28;20379;-60
2023/03/24 03:02:14;;;;;;;;;;;;;;;;;;1031045;28;20388;-59
2023/03/24 03:02:45;;;;;;;;;;;;;;;;;;1031428;28;19909;-60
2023/03/24 03:03:16;;;;;;;;;;;;;;;;;;1030968;28;19942;-60
2023/03/24 03:03:47;;;;;;;;;;;;;;;;;;1031300;28;20281;-60
2023/03/24 03:04:18;;;;;;;;;;;;;;;;;;1030556;28;19914;-59
2023/03/24 03:04:49;;;;;;;;;;;;;;;;;;1030921;28;19993;-60
2023/03/24 03:05:20;;;;;;;;;;;;;;;;;;1030629;28;19910;-60
2023/03/24 03:05:50;;;;;;;;;;;;;;;;;;1031019;28;20750;-60
2023/03/24 03:06:21;;;;;;;;;;;;;;;;;;1031022;28;19917;-60
2023/03/24 03:06:52;;;;;;;;;;;;;;;;;;1031208;28;19909;-60
2023/03/24 03:07:23;;;;;;;;;;;;;;;;;;1030853;28;20012;-60
2023/03/24 03:07:54;;;;;;;;;;;;;;;;;;1031302;28;19914;-60
2023/03/24 03:08:25;;;;;;;;;;;;;;;;;;1030785;28;19916;-60
2023/03/24 03:08:56;;;;;;;;;;;;;;;;;;1031333;28;19916;-60
2023/03/24 03:09:27;;;;;;;;;;;;;;;;;;1030941;28;19916;-60
2023/03/24 03:09:58;;;;;;;;;;;;;;;;;;1031316;28;19980;-60
2023/03/24 03:10:29;;;;;;;;;;;;;;;;;;1030820;28;19932;-60
2023/03/24 03:11:00;;;;;;;;;;;;;;;;;;1031252;28;19913;-60
2023/03/24 03:11:31;;;;;;;;;;;;;;;;;;1031047;28;20324;-60
2023/03/24 03:12:02;;;;;;;;;;;;;;;;;;1031143;28;19920;-60
2023/03/24 03:12:32;;;;;;;;;;;;;;;;;;1031029;28;19920;-60
2023/03/24 03:13:03;;;;;;;;;;;;;;;;;;1031252;28;19935;-60
2023/03/24 03:13:34;;;;;;;;;;;;;;;;;;1031037;28;19932;-60
2023/03/24 03:14:05;;;;;;;;;;;;;;;;;;1031284;28;19909;-60
2023/03/24 03:14:36;;;;;;;;;;;;;;;;;;1031318;28;19967;-60
2023/03/24 03:15:07;;;;;;;;;;;;;;;;;;1031135;28;19909;-59
2023/03/24 03:15:38;;;;;;;;;;;;;;;;;;1031108;28;19918;-60
2023/03/24 03:16:09;;;;;;;;;;;;;;;;;;1031115;28;19972;-60
2023/03/24 03:16:39;;;;;;;;;;;;;;;;;;1031171;28;20503;-60
2023/03/24 03:17:11;;;;;;;;;;;;;;;;;;1031097;28;19956;-60
2023/03/24 03:17:42;;;;;;;;;;;;;;;;;;1031217;28;20820;-60
2023/03/24 03:18:13;;;;;;;;;;;;;;;;;;1031126;28;20285;-60
2023/03/24 03:18:44;;;;;;;;;;;;;;;;;;1031061;28;19909;-60
2023/03/24 03:19:16;;;;;;;;;;;;;;;;;;1031134;28;19910;-59
2023/03/24 03:19:49;;;;;;;;;;;;;;;;;;1030605;28;19967;-60
2023/03/24 03:20:20;;;;;;;;;;;;;;;;;;1030646;28;19913;-60
2023/03/24 03:20:52;;;;;;;;;;;;;;;;;;1030643;28;19910;-60
2023/03/24 03:21:22;;;;;;;;;;;;;;;;;;1030833;28;20004;-60
2023/03/24 03:21:53;;;;;;;;;;;;;;;;;;1031204;28;19909;-60
2023/03/24 03:22:24;;;;;;;;;;;;;;;;;;1030901;28;19910;-60
2023/03/24 03:22:55;;;;;;;;;;;;;;;;;;1031098;28;20012;-60
2023/03/24 03:23:27;;;;;;;;;;;;;;;;;;1030981;28;19910;-60
2023/03/24 03:23:58;;;;;;;;;;;;;;;;;;1031071;28;19945;-60
2023/03/24 03:24:29;;;;;;;;;;;;;;;;;;1031086;28;19979;-60
2023/03/24 03:25:01;;;;;;;;;;;;;;;;;;1031108;28;19990;-60
2023/03/24 03:25:31;;;;;;;;;;;;;;;;;;1030942;28;19906;-60
2023/03/24 03:26:04;;;;;;;;;;;;;;;;;;1031037;28;19906;-59
2023/03/24 03:26:35;;;;;;;;;;;;;;;;;;1031317;28;19913;-60
2023/03/24 03:27:07;;;;;;;;;;;;;;;;;;1031012;28;19912;-60
2023/03/24 03:27:38;;;;;;;;;;;;;;;;;;1031310;28;19905;-60
2023/03/24 03:28:09;;;;;;;;;;;;;;;;;;1031170;28;19972;-60
2023/03/24 03:28:40;;;;;;;;;;;;;;;;;;1031130;28;19992;-60
2023/03/24 03:29:11;;;;;;;;;;;;;;;;;;1030915;28;19905;-60
2023/03/24 03:29:41;;;;;;;;;;;;;;;;;;1031174;28;19928;-59
2023/03/24 03:30:12;;;;;;;;;;;;;;;;;;1031231;28;20066;-60
2023/03/24 03:30:44;;;;;;;;;;;;;;;;;;1030847;28;19913;-60
2023/03/24 03:31:14;;;;;;;;;;;;;;;;;;1031249;28;20327;-60
2023/03/24 03:31:48;;;;;;;;;;;;;;;;;;1030894;28;20324;-59
2023/03/24 03:32:20;;;;;;;;;;;;;;;;;;1031065;28;19905;-60
2023/03/24 03:32:53;;;;;;;;;;;;;;;;;;1031128;28;19910;-60
2023/03/24 03:33:24;;;;;;;;;;;;;;;;;;1031124;28;19961;-60
2023/03/24 03:33:56;;;;;;;;;;;;;;;;;;1031035;28;19906;-60